Time;durP1;ratioP1;P1;durP2;ratioP2;P2;SDS_P1;SDS_P2;PMS_P1;PMS_P2;Temp;Humidity;BMP_temperature;BMP_pressure;BME280_temperature;BME280_humidity;BME280_pressure;Samples;Min_cycle;Max_cycle;Signal;HPM_P1;HPM_P2
2022/10/14 00:01:30;;;;;;;14.07;8.13;;;;;;;;;;5033358;28;20033;-64
2022/10/14 00:03:56;;;;;;;12.20;7.25;;;;;;;;;;5033056;28;20119;-64
2022/10/14 00:06:24;;;;;;;12.32;7.40;;;;;;;;;;5033302;28;20488;-64
2022/10/14 00:08:50;;;;;;;17.20;7.70;;;;;;;;;;5032884;28;20037;-64
2022/10/14 00:11:21;;;;;;;14.02;7.65;;;;;;;;;;5033180;28;20659;-64
2022/10/14 00:13:47;;;;;;;14.43;8.27;;;;;;;;;;5032883;28;20029;-64
2022/10/14 00:16:20;;;;;;;15.60;7.53;;;;;;;;;;5033188;28;20115;-64
2022/10/14 00:18:47;;;;;;;12.93;7.80;;;;;;;;;;5032742;28;20479;-64
2022/10/14 00:21:14;;;;;;;14.20;7.80;;;;;;;;;;5033114;28;20414;-64
2022/10/14 00:23:40;;;;;;;14.13;7.82;;;;;;;;;;5035507;28;20484;-64
2022/10/14 00:26:06;;;;;;;14.38;7.72;;;;;;;;;;5039516;28;20072;-64
2022/10/14 00:28:34;;;;;;;15.65;8.25;;;;;;;;;;5032839;28;20034;-63
2022/10/14 00:31:01;;;;;;;13.77;7.97;;;;;;;;;;5032752;28;20056;-63
2022/10/14 00:33:28;;;;;;;12.73;7.53;;;;;;;;;;5032798;28;20044;-64
2022/10/14 00:36:00;;;;;;;14.00;7.25;;;;;;;;;;5032669;28;20022;-64
2022/10/14 00:38:32;;;;;;;15.40;7.72;;;;;;;;;;5031350;28;20061;-63
2022/10/14 00:40:58;;;;;;;22.92;10.48;;;;;;;;;;5031436;28;20021;-63
2022/10/14 00:43:25;;;;;;;13.70;7.60;;;;;;;;;;5032607;28;20167;-63
2022/10/14 00:45:52;;;;;;;15.80;8.02;;;;;;;;;;5032081;28;20026;-63
2022/10/14 00:48:19;;;;;;;12.45;7.15;;;;;;;;;;5032111;28;20053;-63
2022/10/14 00:50:48;;;;;;;16.10;7.93;;;;;;;;;;5019934;28;20442;-63
2022/10/14 00:53:14;;;;;;;17.75;8.13;;;;;;;;;;5031425;28;20076;-63
2022/10/14 00:55:41;;;;;;;13.75;6.70;;;;;;;;;;5032293;28;20033;-63
2022/10/14 00:58:10;;;;;;;15.48;7.53;;;;;;;;;;5031154;28;20033;-63
2022/10/14 01:00:38;;;;;;;14.07;6.93;;;;;;;;;;5030754;28;20521;-63
2022/10/14 01:03:09;;;;;;;15.77;7.20;;;;;;;;;;5016799;28;20686;-63
2022/10/14 01:05:40;;;;;;;13.15;6.78;;;;;;;;;;5031066;28;20033;-63
2022/10/14 01:08:10;;;;;;;11.80;6.70;;;;;;;;;;5032452;28;20041;-63
2022/10/14 01:10:51;;;;;;;12.73;6.75;;;;;;;;;;5011188;28;20050;-63
2022/10/14 01:13:27;;;;;;;13.95;6.78;;;;;;;;;;5019569;28;20401;-63
2022/10/14 01:15:56;;;;;;;15.35;7.40;;;;;;;;;;5031962;28;20048;-63
2022/10/14 01:18:41;;;;;;;19.60;6.90;;;;;;;;;;5032312;28;20064;-63
2022/10/14 01:21:17;;;;;;;12.48;6.38;;;;;;;;;;5017087;28;20096;-63
2022/10/14 01:23:43;;;;;;;11.30;6.68;;;;;;;;;;5030772;28;20074;-63
2022/10/14 01:26:28;;;;;;;11.05;6.30;;;;;;;;;;5032263;28;20029;-63
2022/10/14 01:29:01;;;;;;;15.52;7.40;;;;;;;;;;5031580;28;20087;-63
2022/10/14 01:31:32;;;;;;;14.85;7.45;;;;;;;;;;5032186;28;20038;-64
2022/10/14 01:33:59;;;;;;;11.15;6.43;;;;;;;;;;5032170;28;20033;-63
2022/10/14 01:36:31;;;;;;;13.43;6.75;;;;;;;;;;5032023;28;20543;-64
2022/10/14 01:39:10;;;;;;;15.70;7.60;;;;;;;;;;5030203;28;20037;-64
2022/10/14 01:41:45;;;;;;;14.55;7.40;;;;;;;;;;5035184;28;20392;-64
2022/10/14 01:44:11;;;;;;;;;;;;;;;;;;5030693;28;20436;-64
2022/10/14 01:46:40;;;;;;;13.85;7.20;;;;;;;;;;5030953;28;19955;-64
2022/10/14 01:49:15;;;;;;;16.50;7.25;;;;;;;;;;5032261;28;20025;-64
2022/10/14 01:51:52;;;;;;;11.60;6.72;;;;;;;;;;5034377;28;20079;-64
2022/10/14 01:54:24;;;;;;;14.10;6.93;;;;;;;;;;5036078;28;20031;-64
2022/10/14 01:56:52;;;;;;;13.73;7.13;;;;;;;;;;5035597;28;20029;-64
2022/10/14 01:59:19;;;;;;;16.40;6.90;;;;;;;;;;5034331;28;20112;-64
2022/10/14 02:01:46;;;;;;;13.68;6.63;;;;;;;;;;5034259;28;20447;-64
2022/10/14 02:04:19;;;;;;;19.15;7.88;;;;;;;;;;5034408;28;20029;-64
2022/10/14 02:06:55;;;;;;;13.13;6.78;;;;;;;;;;5034218;28;20025;-64
2022/10/14 02:09:34;;;;;;;12.23;6.80;;;;;;;;;;5019265;28;20021;-64
2022/10/14 02:12:19;;;;;;;13.05;7.40;;;;;;;;;;5035376;28;20037;-64
2022/10/14 02:15:00;;;;;;;12.57;6.72;;;;;;;;;;5033762;28;20542;-64
2022/10/14 02:17:37;;;;;;;15.85;6.78;;;;;;;;;;5019829;28;20029;-64
2022/10/14 02:20:13;;;;;;;11.30;6.90;;;;;;;;;;5035406;28;20053;-64
2022/10/14 02:22:42;;;;;;;12.07;6.57;;;;;;;;;;5034237;28;20053;-64
2022/10/14 02:25:26;;;;;;;11.88;6.93;;;;;;;;;;5034861;28;20041;-64
2022/10/14 02:27:53;;;;;;;14.80;6.68;;;;;;;;;;5033609;28;20029;-64
2022/10/14 02:30:20;;;;;;;16.25;6.50;;;;;;;;;;5035157;28;20021;-64
2022/10/14 02:32:52;;;;;;;14.27;6.38;;;;;;;;;;5034783;28;20029;-64
2022/10/14 02:35:19;;;;;;;13.85;6.78;;;;;;;;;;5035136;28;20113;-64
2022/10/14 02:37:48;;;;;;;14.32;6.07;;;;;;;;;;5033947;28;20031;-64
2022/10/14 02:40:23;;;;;;;12.73;5.72;;;;;;;;;;5033423;28;20120;-64
2022/10/14 02:42:49;;;;;;;9.05;5.65;;;;;;;;;;5034446;28;20473;-64
2022/10/14 02:45:15;;;;;;;11.25;5.82;;;;;;;;;;5034315;28;20025;-64
2022/10/14 02:47:44;;;;;;;10.60;5.63;;;;;;;;;;5033568;28;20035;-64
2022/10/14 02:50:13;;;;;;;9.00;5.72;;;;;;;;;;5034579;28;20029;-64
2022/10/14 02:52:39;;;;;;;13.15;5.63;;;;;;;;;;5024867;28;20033;-64
2022/10/14 02:55:05;;;;;;;12.80;5.53;;;;;;;;;;5034475;28;20354;-64
2022/10/14 02:57:31;;;;;;;9.95;5.63;;;;;;;;;;5033154;28;20540;-64
2022/10/14 02:59:57;;;;;;;12.45;5.20;;;;;;;;;;5032999;28;20041;-64
2022/10/14 03:02:24;;;;;;;10.50;4.97;;;;;;;;;;5033261;28;20025;-64
2022/10/14 03:04:50;;;;;;;9.30;4.90;;;;;;;;;;5033053;28;20029;-64
2022/10/14 03:07:16;;;;;;;8.82;4.57;;;;;;;;;;5033245;28;20025;-64
2022/10/14 03:09:47;;;;;;;14.38;5.40;;;;;;;;;;5033029;28;20175;-64
2022/10/14 03:12:13;;;;;;;11.15;4.55;;;;;;;;;;5032850;28;20022;-64
2022/10/14 03:14:40;;;;;;;10.02;5.30;;;;;;;;;;5033167;28;20032;-64
2022/10/14 03:17:09;;;;;;;10.82;4.47;;;;;;;;;;5032907;28;20428;-64
2022/10/14 03:19:35;;;;;;;8.98;5.03;;;;;;;;;;5033284;28;20477;-64
2022/10/14 03:22:01;;;;;;;9.15;5.25;;;;;;;;;;5033081;28;20456;-64
2022/10/14 03:24:28;;;;;;;9.10;5.30;;;;;;;;;;5042519;28;20032;-64
2022/10/14 03:27:13;;;;;;;9.18;5.28;;;;;;;;;;5052684;28;20033;-64
2022/10/14 03:29:40;;;;;;;11.68;5.68;;;;;;;;;;5052899;28;20061;-64
2022/10/14 03:32:13;;;;;;;10.02;5.70;;;;;;;;;;5052683;28;20021;-64
2022/10/14 03:34:58;;;;;;;11.75;5.43;;;;;;;;;;5054210;28;20043;-64
2022/10/14 03:37:25;;;;;;;10.70;5.57;;;;;;;;;;5052882;28;20124;-64
2022/10/14 03:39:55;;;;;;;17.35;5.80;;;;;;;;;;5043029;28;20087;-64
2022/10/14 03:42:21;;;;;;;10.82;6.03;;;;;;;;;;5032680;28;20033;-64
2022/10/14 03:44:49;;;;;;;11.15;5.57;;;;;;;;;;5032352;28;20389;-64
2022/10/14 03:47:22;;;;;;;12.52;5.63;;;;;;;;;;5032583;28;20504;-64
2022/10/14 03:49:48;;;;;;;14.43;5.63;;;;;;;;;;5033340;28;20033;-64
2022/10/14 03:52:21;;;;;;;16.73;6.35;;;;;;;;;;5032264;28;20048;-64
2022/10/14 03:54:58;;;;;;;13.75;5.40;;;;;;;;;;5031978;28;20037;-64
2022/10/14 03:57:25;;;;;;;9.40;5.20;;;;;;;;;;5033399;28;20466;-64
2022/10/14 03:59:55;;;;;;;10.85;5.47;;;;;;;;;;5032362;28;20060;-64
2022/10/14 04:02:24;;;;;;;11.77;5.85;;;;;;;;;;5027184;28;20492;-64
2022/10/14 04:04:55;;;;;;;14.23;6.68;;;;;;;;;;5032696;28;20434;-64
2022/10/14 04:07:22;;;;;;;14.48;5.70;;;;;;;;;;5032223;28;20068;-64
2022/10/14 04:09:53;;;;;;;10.75;5.50;;;;;;;;;;5027518;28;20049;-64
2022/10/14 04:12:20;;;;;;;12.73;6.05;;;;;;;;;;5030920;28;20436;-64
2022/10/14 04:14:59;;;;;;;9.30;6.05;;;;;;;;;;5031962;28;20124;-64
2022/10/14 04:17:31;;;;;;;10.43;6.35;;;;;;;;;;5032299;28;20033;-64
2022/10/14 04:20:01;;;;;;;10.35;5.75;;;;;;;;;;5031872;28;20040;-64
2022/10/14 04:22:28;;;;;;;9.15;4.95;;;;;;;;;;5037481;28;20029;-64
2022/10/14 04:24:55;;;;;;;8.32;4.90;;;;;;;;;;5031083;28;20064;-64
2022/10/14 04:27:21;;;;;;;10.77;5.15;;;;;;;;;;5030766;28;20022;-64
2022/10/14 04:29:56;;;;;;;8.65;4.45;;;;;;;;;;5030594;28;20117;-63
2022/10/14 04:32:27;;;;;;;9.63;4.82;;;;;;;;;;5030434;28;20029;-63
2022/10/14 04:34:53;;;;;;;8.40;4.82;;;;;;;;;;5031855;28;20125;-63
2022/10/14 04:37:22;;;;;;;9.50;5.28;;;;;;;;;;5031577;28;20026;-63
2022/10/14 04:40:02;;;;;;;8.43;5.30;;;;;;;;;;5030510;28;20037;-63
2022/10/14 04:42:30;;;;;;;10.55;5.35;;;;;;;;;;5029656;28;20034;-63
2022/10/14 04:45:00;;;;;;;8.50;5.32;;;;;;;;;;5031551;28;20033;-63
2022/10/14 04:47:40;;;;;;;10.07;5.40;;;;;;;;;;5031476;28;20030;-63
2022/10/14 04:50:07;;;;;;;9.27;5.60;;;;;;;;;;5029774;28;20033;-64
2022/10/14 04:52:35;;;;;;;8.10;5.53;;;;;;;;;;5029906;28;20079;-64
2022/10/14 04:55:08;;;;;;;10.70;5.55;;;;;;;;;;5029528;28;20065;-64
2022/10/14 04:57:42;;;;;;;11.32;5.43;;;;;;;;;;5030441;28;20017;-64
2022/10/14 05:00:10;;;;;;;10.88;5.93;;;;;;;;;;5030884;28;20029;-64
2022/10/14 05:02:47;;;;;;;10.13;5.47;;;;;;;;;;5016782;28;20428;-64
2022/10/14 05:05:14;;;;;;;8.23;5.00;;;;;;;;;;5028848;28;20116;-64
2022/10/14 05:07:42;;;;;;;10.77;5.35;;;;;;;;;;5029123;28;20385;-64
2022/10/14 05:10:21;;;;;;;10.00;5.57;;;;;;;;;;5029149;28;20509;-64
2022/10/14 05:12:48;;;;;;;9.23;5.35;;;;;;;;;;5027761;28;20116;-64
2022/10/14 05:15:14;;;;;;;9.57;4.82;;;;;;;;;;5030026;28;20083;-64
2022/10/14 05:17:50;;;;;;;11.15;6.10;;;;;;;;;;5031256;28;20029;-64
2022/10/14 05:20:22;;;;;;;7.00;4.47;;;;;;;;;;5030348;28;20456;-64
2022/10/14 05:22:52;;;;;;;8.05;4.68;;;;;;;;;;5030227;28;20026;-64
2022/10/14 05:25:18;;;;;;;8.60;4.35;;;;;;;;;;5032088;28;20117;-64
2022/10/14 05:27:45;;;;;;;8.40;4.43;;;;;;;;;;5035124;28;20121;-64
2022/10/14 05:30:12;;;;;;;8.55;5.28;;;;;;;;;;5034035;28;20029;-64
2022/10/14 05:32:44;;;;;;;6.88;4.78;;;;;;;;;;5035020;28;20017;-64
2022/10/14 05:35:10;;;;;;;9.43;5.25;;;;;;;;;;5033194;28;20033;-64
2022/10/14 05:37:39;;;;;;;9.95;5.00;;;;;;;;;;5030290;28;20037;-64
2022/10/14 05:40:06;;;;;;;10.77;5.10;;;;;;;;;;5034937;28;20044;-64
2022/10/14 05:42:35;;;;;;;7.93;4.88;;;;;;;;;;5034408;28;20022;-64
2022/10/14 05:45:01;;;;;;;6.90;4.15;;;;;;;;;;5033978;28;20022;-64
2022/10/14 05:47:29;;;;;;;15.48;4.80;;;;;;;;;;5034078;28;20086;-64
2022/10/14 05:50:05;;;;;;;7.85;5.30;;;;;;;;;;5031540;28;20041;-64
2022/10/14 05:52:32;;;;;;;9.35;4.60;;;;;;;;;;5028340;28;20030;-64
2022/10/14 05:55:02;;;;;;;8.10;4.88;;;;;;;;;;5033840;28;20025;-64
2022/10/14 05:57:28;;;;;;;7.18;4.13;;;;;;;;;;5034834;28;20512;-63
2022/10/14 05:59:54;;;;;;;9.30;4.30;;;;;;;;;;5033774;28;20416;-63
2022/10/14 06:02:20;;;;;;;7.00;3.97;;;;;;;;;;5034207;28;20032;-63
2022/10/14 06:04:46;;;;;;;7.07;4.70;;;;;;;;;;5032200;28;20034;-63
2022/10/14 06:07:13;;;;;;;9.00;4.10;;;;;;;;;;5026739;28;20032;-63
2022/10/14 06:09:40;;;;;;;6.85;3.95;;;;;;;;;;5032541;28;20113;-63
2022/10/14 06:12:06;;;;;;;7.38;4.07;;;;;;;;;;5032941;28;20049;-63
2022/10/14 06:14:32;;;;;;;5.93;3.33;;;;;;;;;;5030115;28;20493;-63
2022/10/14 06:16:59;;;;;;;8.00;3.70;;;;;;;;;;5033676;28;20124;-66
2022/10/14 06:19:25;;;;;;;6.32;3.88;;;;;;;;;;5029177;28;20040;-63
2022/10/14 06:21:51;;;;;;;7.65;3.42;;;;;;;;;;5026772;28;20026;-63
2022/10/14 06:24:17;;;;;;;5.97;3.72;;;;;;;;;;5026735;28;20033;-63
2022/10/14 06:26:43;;;;;;;5.60;3.58;;;;;;;;;;5034025;28;20021;-63
2022/10/14 06:29:10;;;;;;;5.60;3.63;;;;;;;;;;5033567;28;20048;-64
2022/10/14 06:31:36;;;;;;;5.85;3.10;;;;;;;;;;5034855;28;20044;-64
2022/10/14 06:34:04;;;;;;;5.30;2.83;;;;;;;;;;5028121;28;20108;-64
2022/10/14 06:36:30;;;;;;;5.60;3.30;;;;;;;;;;5023045;28;20065;-64
2022/10/14 06:38:56;;;;;;;6.78;3.40;;;;;;;;;;5033428;28;20039;-64
2022/10/14 06:41:23;;;;;;;5.22;2.58;;;;;;;;;;5038335;28;20365;-64
2022/10/14 06:43:49;;;;;;;4.82;3.03;;;;;;;;;;5032606;28;20038;-64
2022/10/14 06:46:15;;;;;;;3.95;2.63;;;;;;;;;;5032834;28;20083;-64
2022/10/14 06:48:41;;;;;;;5.18;3.20;;;;;;;;;;5032057;28;20108;-64
2022/10/14 06:51:08;;;;;;;3.88;2.85;;;;;;;;;;5023101;28;20108;-64
2022/10/14 06:53:34;;;;;;;5.10;2.55;;;;;;;;;;5023457;28;20053;-64
2022/10/14 06:56:02;;;;;;;5.75;2.75;;;;;;;;;;5018422;28;20040;-64
2022/10/14 06:58:28;;;;;;;4.80;2.85;;;;;;;;;;5020041;28;20429;-64
2022/10/14 07:00:54;;;;;;;5.78;2.42;;;;;;;;;;5027209;28;20390;-64
2022/10/14 07:03:21;;;;;;;6.45;2.55;;;;;;;;;;5021533;28;20124;-64
2022/10/14 07:05:47;;;;;;;3.53;2.15;;;;;;;;;;5024214;28;20048;-64
2022/10/14 07:08:13;;;;;;;8.55;2.20;;;;;;;;;;5022612;28;20022;-64
2022/10/14 07:10:39;;;;;;;3.35;2.20;;;;;;;;;;5031404;28;20033;-64
2022/10/14 07:13:05;;;;;;;3.08;2.00;;;;;;;;;;5023158;28;20033;-64
2022/10/14 07:15:31;;;;;;;3.95;2.33;;;;;;;;;;5024844;28;20402;-64
2022/10/14 07:17:57;;;;;;;3.88;1.95;;;;;;;;;;5025763;28;20026;-64
2022/10/14 07:20:23;;;;;;;2.78;1.73;;;;;;;;;;5033604;28;20105;-64
2022/10/14 07:22:54;;;;;;;4.85;2.55;;;;;;;;;;5032188;28;20037;-64
2022/10/14 07:25:20;;;;;;;3.85;2.67;;;;;;;;;;5032810;28;20029;-65
2022/10/14 07:27:46;;;;;;;4.85;2.53;;;;;;;;;;5033477;28;20480;-65
2022/10/14 07:30:12;;;;;;;4.90;3.28;;;;;;;;;;5034258;28;20022;-65
2022/10/14 07:32:38;;;;;;;4.47;3.20;;;;;;;;;;5033453;28;20053;-65
2022/10/14 07:35:05;;;;;;;4.55;3.10;;;;;;;;;;5033797;28;20052;-65
2022/10/14 07:37:31;;;;;;;4.07;2.60;;;;;;;;;;5033861;28;20101;-65
2022/10/14 07:39:57;;;;;;;4.97;2.38;;;;;;;;;;5030016;28;20116;-65
2022/10/14 07:42:23;;;;;;;2.67;2.10;;;;;;;;;;5025529;28;20494;-65
2022/10/14 07:44:52;;;;;;;2.40;2.03;;;;;;;;;;5030496;28;20037;-65
2022/10/14 07:47:19;;;;;;;5.45;2.42;;;;;;;;;;5025317;28;20481;-65
2022/10/14 07:49:45;;;;;;;3.10;2.33;;;;;;;;;;5033520;28;20041;-65
2022/10/14 07:52:11;;;;;;;3.30;2.17;;;;;;;;;;5033406;28;20056;-65
2022/10/14 07:54:37;;;;;;;6.85;2.90;;;;;;;;;;5033200;28;20083;-65
2022/10/14 07:57:03;;;;;;;3.90;2.30;;;;;;;;;;5032903;28;20045;-65
2022/10/14 07:59:29;;;;;;;2.80;2.15;;;;;;;;;;5033660;28;20037;-65
2022/10/14 08:01:56;;;;;;;3.40;2.17;;;;;;;;;;5033009;28;20025;-65
2022/10/14 08:04:22;;;;;;;3.65;2.60;;;;;;;;;;5033653;28;20041;-65
2022/10/14 08:06:49;;;;;;;3.95;2.47;;;;;;;;;;5033266;28;20043;-65
2022/10/14 08:09:16;;;;;;;2.85;2.50;;;;;;;;;;5033522;28;20089;-65
2022/10/14 08:11:42;;;;;;;3.17;2.03;;;;;;;;;;5032841;28;20548;-65
2022/10/14 08:14:08;;;;;;;3.58;2.22;;;;;;;;;;5033076;28;20029;-65
2022/10/14 08:16:35;;;;;;;3.95;3.08;;;;;;;;;;5032185;28;20462;-65
2022/10/14 08:19:04;;;;;;;2.80;2.03;;;;;;;;;;5023844;28;20026;-65
2022/10/14 08:21:30;;;;;;;2.80;2.33;;;;;;;;;;5023938;28;20033;-65
2022/10/14 08:23:56;;;;;;;2.53;1.60;;;;;;;;;;5030064;28;20026;-65
2022/10/14 08:26:29;;;;;;;2.45;1.70;;;;;;;;;;5027331;28;20048;-65
2022/10/14 08:28:56;;;;;;;3.17;1.60;;;;;;;;;;5030462;28;20369;-65
2022/10/14 08:31:22;;;;;;;2.28;1.40;;;;;;;;;;5032011;28;20024;-65
2022/10/14 08:33:48;;;;;;;1.65;1.42;;;;;;;;;;5036637;28;20128;-65
2022/10/14 08:36:15;;;;;;;1.85;1.27;;;;;;;;;;5029394;28;20505;-65
2022/10/14 08:38:41;;;;;;;2.45;1.20;;;;;;;;;;5030790;28;20025;-65
2022/10/14 08:41:07;;;;;;;3.60;0.90;;;;;;;;;;5029484;28;20037;-65
2022/10/14 08:43:34;;;;;;;2.75;1.20;;;;;;;;;;5032427;28;20470;-65
2022/10/14 08:46:05;;;;;;;2.13;0.82;;;;;;;;;;5032123;28;20025;-65
2022/10/14 08:48:34;;;;;;;1.00;0.80;;;;;;;;;;5032557;28;20036;-65
2022/10/14 08:51:06;;;;;;;1.10;0.70;;;;;;;;;;5032497;28;20025;-65
2022/10/14 08:53:38;;;;;;;1.58;0.70;;;;;;;;;;5032703;28;20493;-65
2022/10/14 08:56:05;;;;;;;2.58;1.63;;;;;;;;;;5030220;28;20159;-65
2022/10/14 08:58:33;;;;;;;5.22;1.40;;;;;;;;;;5032038;28;20416;-65
2022/10/14 09:01:13;;;;;;;1.33;0.80;;;;;;;;;;5032436;28;20031;-65
2022/10/14 09:03:39;;;;;;;0.85;0.80;;;;;;;;;;5026979;28;20428;-65
2022/10/14 09:06:07;;;;;;;1.67;0.80;;;;;;;;;;5030375;28;20024;-65
2022/10/14 09:08:37;;;;;;;1.33;1.17;;;;;;;;;;5028395;28;20018;-66
2022/10/14 09:11:04;;;;;;;1.60;1.40;;;;;;;;;;5028874;28;20049;-66
2022/10/14 09:13:34;;;;;;;4.03;1.42;;;;;;;;;;5031422;28;20025;-66
2022/10/14 09:16:03;;;;;;;3.60;1.73;;;;;;;;;;5032083;28;20030;-66
2022/10/14 09:18:35;;;;;;;2.00;1.58;;;;;;;;;;5031358;28;20036;-66
2022/10/14 09:21:02;;;;;;;1.27;1.10;;;;;;;;;;5030119;28;20036;-66
2022/10/14 09:23:28;;;;;;;2.00;1.40;;;;;;;;;;5031299;28;20049;-66
2022/10/14 09:25:59;;;;;;;2.88;1.13;;;;;;;;;;5028194;28;20026;-66
2022/10/14 09:28:35;;;;;;;1.67;1.10;;;;;;;;;;5030977;28;20043;-66
2022/10/14 09:31:02;;;;;;;3.33;1.95;;;;;;;;;;5031052;28;20405;-66
2022/10/14 09:33:28;;;;;;;2.38;1.23;;;;;;;;;;5031220;28;20021;-66
2022/10/14 09:35:56;;;;;;;1.75;1.42;;;;;;;;;;5030878;28;20032;-66
2022/10/14 09:38:23;;;;;;;2.45;1.60;;;;;;;;;;5030654;28;20482;-66
2022/10/14 09:40:51;;;;;;;1.52;1.20;;;;;;;;;;5030091;28;20373;-66
2022/10/14 09:43:18;;;;;;;1.27;1.17;;;;;;;;;;5031704;28;20028;-66
2022/10/14 09:46:09;;;;;;;1.88;1.30;;;;;;;;;;5031105;28;20068;-66
2022/10/14 09:48:39;;;;;;;1.67;1.10;;;;;;;;;;5029909;28;20018;-66
2022/10/14 09:51:08;;;;;;;1.67;1.30;;;;;;;;;;5031464;28;20030;-66
2022/10/14 09:53:54;;;;;;;2.10;1.35;;;;;;;;;;5031028;28;20029;-66
2022/10/14 09:56:48;;;;;;;3.20;1.38;;;;;;;;;;5029821;28;20125;-65
2022/10/14 09:59:18;;;;;;;2.53;1.63;;;;;;;;;;5020845;28;20048;-65
2022/10/14 10:01:52;;;;;;;1.80;1.30;;;;;;;;;;5031412;28;20075;-65
2022/10/14 10:04:26;;;;;;;2.63;1.25;;;;;;;;;;5030594;28;20044;-65
2022/10/14 10:06:54;;;;;;;1.67;1.52;;;;;;;;;;5031028;28;20040;-65
2022/10/14 10:09:20;;;;;;;2.30;1.98;;;;;;;;;;5031585;28;20026;-65
2022/10/14 10:11:47;;;;;;;3.63;2.33;;;;;;;;;;5034878;28;20033;-65
2022/10/14 10:14:26;;;;;;;2.85;2.53;;;;;;;;;;5034731;28;20022;-65
2022/10/14 10:17:11;;;;;;;4.00;2.38;;;;;;;;;;5033047;28;20022;-65
2022/10/14 10:19:45;;;;;;;3.28;2.80;;;;;;;;;;5032948;28;20048;-66
2022/10/14 10:22:16;;;;;;;3.85;2.40;;;;;;;;;;5030216;28;20033;-66
2022/10/14 10:24:43;;;;;;;3.75;2.58;;;;;;;;;;5028911;28;20485;-66
2022/10/14 10:27:26;;;;;;;5.75;3.17;;;;;;;;;;5030677;28;20430;-66
2022/10/14 10:29:56;;;;;;;3.10;2.38;;;;;;;;;;5029877;28;20021;-66
2022/10/14 10:32:43;;;;;;;2.42;1.95;;;;;;;;;;5029087;28;20022;-66
2022/10/14 10:35:15;;;;;;;3.47;1.35;;;;;;;;;;5028424;28;20045;-66
2022/10/14 10:37:49;;;;;;;2.40;1.47;;;;;;;;;;5028040;28;20148;-66
2022/10/14 10:40:24;;;;;;;2.92;1.15;;;;;;;;;;5026396;28;20046;-66
2022/10/14 10:42:59;;;;;;;3.15;1.00;;;;;;;;;;5026781;28;20382;-66
2022/10/14 10:45:32;;;;;;;1.77;1.30;;;;;;;;;;5024473;28;20401;-66
2022/10/14 10:48:06;;;;;;;1.83;0.95;;;;;;;;;;5026566;28;20044;-66
2022/10/14 10:50:56;;;;;;;7.28;1.50;;;;;;;;;;5027271;28;20396;-65
2022/10/14 10:53:22;;;;;;;2.58;1.58;;;;;;;;;;5017648;28;20100;-65
2022/10/14 10:55:53;;;;;;;2.08;1.30;;;;;;;;;;5024677;28;20414;-65
2022/10/14 10:58:53;;;;;;;3.25;1.65;;;;;;;;;;5029151;28;20039;-65
2022/10/14 11:01:24;;;;;;;4.35;1.90;;;;;;;;;;4988581;28;20116;-65
2022/10/14 11:04:02;;;;;;;3.40;1.95;;;;;;;;;;5025289;28;20037;-65
2022/10/14 11:12:14;;;;;;;4.60;2.47;;;;;;;;;;5032540;28;20042;-65
2022/10/14 11:14:45;;;;;;;6.40;2.47;;;;;;;;;;5034337;28;20075;-65
2022/10/14 11:17:34;;;;;;;3.35;2.15;;;;;;;;;;5032344;28;20029;-65
2022/10/14 11:20:17;;;;;;;3.55;2.20;;;;;;;;;;5031132;28;20083;-65
2022/10/14 11:22:49;;;;;;;3.67;2.60;;;;;;;;;;5033616;28;20458;-65
2022/10/14 11:25:37;;;;;;;4.10;2.22;;;;;;;;;;5032318;28;20044;-65
2022/10/14 11:28:15;;;;;;;4.60;2.75;;;;;;;;;;5028499;28;20377;-65
2022/10/14 11:30:57;;;;;;;6.13;2.75;;;;;;;;;;5031498;28;20029;-65
2022/10/14 11:33:26;;;;;;;3.88;2.45;;;;;;;;;;5028665;28;20037;-65
2022/10/14 11:36:17;;;;;;;4.72;3.05;;;;;;;;;;5031687;28;20025;-65
2022/10/14 11:38:47;;;;;;;3.25;2.00;;;;;;;;;;5031603;28;20061;-65
2022/10/14 11:41:28;;;;;;;2.05;1.63;;;;;;;;;;5033190;28;20034;-65
2022/10/14 11:44:07;;;;;;;4.75;2.38;;;;;;;;;;5030990;28;20034;-65
2022/10/14 11:46:36;;;;;;;5.10;2.50;;;;;;;;;;5028990;28;20374;-65
2022/10/14 11:49:05;;;;;;;4.32;2.28;;;;;;;;;;5032834;28;20485;-65
2022/10/14 11:51:39;;;;;;;5.45;2.40;;;;;;;;;;5032680;28;20061;-65
2022/10/14 11:54:21;;;;;;;4.82;2.58;;;;;;;;;;5032984;28;20049;-65
2022/10/14 11:56:49;;;;;;;4.43;2.95;;;;;;;;;;5029823;28;20064;-65
2022/10/14 11:59:28;;;;;;;6.60;3.03;;;;;;;;;;5032552;28;20041;-65
2022/10/14 12:02:03;;;;;;;4.43;2.53;;;;;;;;;;5028497;28;20068;-65
2022/10/14 12:04:35;;;;;;;3.95;2.42;;;;;;;;;;5031804;28;20083;-65
2022/10/14 12:07:16;;;;;;;5.47;3.10;;;;;;;;;;5031785;28;20025;-65
2022/10/14 12:09:46;;;;;;;8.48;2.97;;;;;;;;;;5030898;28;20034;-65
2022/10/14 12:12:14;;;;;;;3.20;1.90;;;;;;;;;;5035530;28;20029;-65
2022/10/14 12:14:49;;;;;;;2.65;1.42;;;;;;;;;;5032477;28;20025;-65
2022/10/14 12:17:20;;;;;;;3.67;2.33;;;;;;;;;;5032349;28;20053;-65
2022/10/14 12:19:47;;;;;;;3.53;2.30;;;;;;;;;;5030188;28;20040;-65
2022/10/14 12:22:27;;;;;;;3.30;2.38;;;;;;;;;;5031728;28;20022;-65
2022/10/14 12:24:57;;;;;;;6.72;1.75;;;;;;;;;;5032042;28;20148;-65
2022/10/14 12:27:25;;;;;;;3.95;1.83;;;;;;;;;;5031338;28;20021;-65
2022/10/14 12:29:51;;;;;;;8.80;2.15;;;;;;;;;;5034890;28;20037;-65
2022/10/14 12:32:20;;;;;;;5.10;2.38;;;;;;;;;;5031311;28;20489;-65
2022/10/14 12:34:48;;;;;;;3.65;2.63;;;;;;;;;;5029632;28;20100;-65
2022/10/14 12:37:23;;;;;;;5.40;2.40;;;;;;;;;;5031586;28;20028;-65
2022/10/14 12:39:53;;;;;;;4.88;2.45;;;;;;;;;;5029205;28;20064;-65
2022/10/14 12:42:20;;;;;;;4.97;2.25;;;;;;;;;;5031683;28;20029;-65
2022/10/14 12:44:52;;;;;;;3.35;2.50;;;;;;;;;;5031720;28;20056;-65
2022/10/14 12:47:21;;;;;;;3.67;2.25;;;;;;;;;;5032362;28;20029;-65
2022/10/14 12:49:50;;;;;;;4.95;2.00;;;;;;;;;;5031760;28;20075;-65
2022/10/14 12:52:20;;;;;;;5.03;1.90;;;;;;;;;;5031994;28;20026;-65
2022/10/14 12:54:47;;;;;;;4.53;2.50;;;;;;;;;;5032134;28;20030;-65
2022/10/14 12:57:30;;;;;;;4.07;1.80;;;;;;;;;;5032010;28;20168;-65
2022/10/14 12:59:58;;;;;;;3.10;2.20;;;;;;;;;;5032333;28;20381;-65
2022/10/14 13:02:33;;;;;;;2.53;1.70;;;;;;;;;;5031621;28;20152;-65
2022/10/14 13:05:01;;;;;;;4.85;1.63;;;;;;;;;;5030047;28;20109;-65
2022/10/14 13:07:38;;;;;;;2.17;1.63;;;;;;;;;;5027195;28;20037;-65
2022/10/14 13:10:23;;;;;;;3.50;2.10;;;;;;;;;;5029313;28;20050;-65
2022/10/14 13:12:49;;;;;;;1.10;1.00;;;;;;;;;;5027294;28;20038;-65
2022/10/14 13:15:35;;;;;;;1.92;1.10;;;;;;;;;;5028769;28;20037;-65
2022/10/14 13:18:20;;;;;;;2.00;1.13;;;;;;;;;;5030120;28;20037;-65
2022/10/14 13:20:46;;;;;;;1.98;1.40;;;;;;;;;;5029205;28;20588;-65
2022/10/14 13:23:22;;;;;;;2.03;1.33;;;;;;;;;;5030733;28;20580;-65
2022/10/14 13:25:51;;;;;;;2.72;1.30;;;;;;;;;;5023799;28;20451;-65
2022/10/14 13:28:29;;;;;;;3.88;1.70;;;;;;;;;;5030045;28;20044;-65
2022/10/14 13:31:00;;;;;;;5.88;1.30;;;;;;;;;;5035234;28;20032;-65
2022/10/14 13:33:31;;;;;;;6.13;1.15;;;;;;;;;;5031514;28;20033;-65
2022/10/14 13:36:16;;;;;;;1.90;0.85;;;;;;;;;;5030886;28;20030;-65
2022/10/14 13:38:44;;;;;;;1.63;0.90;;;;;;;;;;5032258;28;20040;-65
2022/10/14 13:41:17;;;;;;;3.33;0.93;;;;;;;;;;5029868;28;20022;-65
2022/10/14 13:43:43;;;;;;;;;;;;;;;;;;5031200;28;20033;-65
2022/10/14 13:46:23;;;;;;;3.15;1.60;;;;;;;;;;5034614;28;19996;-65
2022/10/14 13:48:51;;;;;;;4.00;1.80;;;;;;;;;;5034473;28;20075;-65
2022/10/14 13:51:17;;;;;;;3.88;2.42;;;;;;;;;;5028366;28;20033;-65
2022/10/14 13:54:12;;;;;;;3.38;2.20;;;;;;;;;;5035358;28;20120;-65
2022/10/14 13:56:39;;;;;;;3.42;2.35;;;;;;;;;;5032140;28;20045;-65
2022/10/14 13:59:18;;;;;;;3.63;2.20;;;;;;;;;;5034030;28;20486;-65
2022/10/14 14:01:44;;;;;;;4.20;1.77;;;;;;;;;;5025830;28;20030;-65
2022/10/14 14:04:16;;;;;;;4.07;2.05;;;;;;;;;;5034761;28;20033;-65
2022/10/14 14:06:46;;;;;;;2.55;1.85;;;;;;;;;;5034879;28;20440;-65
2022/10/14 14:09:17;;;;;;;2.67;1.88;;;;;;;;;;5034287;28;20397;-65
2022/10/14 14:11:45;;;;;;;2.55;1.80;;;;;;;;;;5029340;28;20030;-65
2022/10/14 14:14:26;;;;;;;2.17;1.40;;;;;;;;;;5034101;28;20384;-65
2022/10/14 14:16:54;;;;;;;2.78;1.38;;;;;;;;;;5029474;28;20064;-65
2022/10/14 14:19:32;;;;;;;3.53;1.63;;;;;;;;;;5034050;28;20032;-65
2022/10/14 14:22:27;;;;;;;2.50;2.10;;;;;;;;;;5034913;28;20040;-63
2022/10/14 14:25:10;;;;;;;5.57;1.58;;;;;;;;;;5021555;28;20405;-64
2022/10/14 14:27:36;;;;;;;2.93;1.60;;;;;;;;;;5030739;28;20029;-64
2022/10/14 14:30:07;;;;;;;3.55;1.73;;;;;;;;;;5034952;28;20021;-64
2022/10/14 14:32:35;;;;;;;2.28;1.60;;;;;;;;;;5033862;28;20440;-64
2022/10/14 14:35:02;;;;;;;2.08;1.38;;;;;;;;;;5034789;28;20021;-64
2022/10/14 14:37:30;;;;;;;1.83;1.45;;;;;;;;;;5033433;28;20116;-65
2022/10/14 14:40:07;;;;;;;1.77;1.50;;;;;;;;;;5034668;28;20038;-64
2022/10/14 14:42:41;;;;;;;3.55;1.27;;;;;;;;;;5034706;28;20499;-64
2022/10/14 14:45:11;;;;;;;3.28;1.38;;;;;;;;;;5034586;28;20477;-64
2022/10/14 14:47:38;;;;;;;1.67;1.30;;;;;;;;;;5034294;28;20025;-64
2022/10/14 14:50:04;;;;;;;1.95;1.17;;;;;;;;;;5034564;28;20481;-64
2022/10/14 14:52:31;;;;;;;2.15;1.50;;;;;;;;;;5028154;28;20451;-64
2022/10/14 14:54:57;;;;;;;2.03;1.27;;;;;;;;;;5033341;28;20441;-64
2022/10/14 14:57:23;;;;;;;3.65;1.50;;;;;;;;;;5033741;28;20048;-64
2022/10/14 14:59:56;;;;;;;3.10;1.67;;;;;;;;;;5034195;28;20021;-64
2022/10/14 15:02:24;;;;;;;6.97;2.40;;;;;;;;;;5032584;28;20028;-64
2022/10/14 15:05:19;;;;;;;5.35;2.60;;;;;;;;;;5033738;28;20037;-64
2022/10/14 15:07:45;;;;;;;2.67;1.83;;;;;;;;;;5027453;28;20044;-64